sensor_id;sensor_type;location;lat;lon;timestamp;P1;durP1;ratioP1;P2;durP2;ratioP2
317;SDS011;146;53.448;10.228;2022-08-18T00:01:45;7.20;;;6.60;;
317;SDS011;146;53.448;10.228;2022-08-18T00:04:15;8.27;;;7.57;;
317;SDS011;146;53.448;10.228;2022-08-18T00:06:42;8.10;;;7.50;;
317;SDS011;146;53.448;10.228;2022-08-18T00:09:09;7.30;;;6.70;;
317;SDS011;146;53.448;10.228;2022-08-18T00:11:39;8.00;;;7.30;;
317;SDS011;146;53.448;10.228;2022-08-18T00:14:10;8.53;;;7.70;;
317;SDS011;146;53.448;10.228;2022-08-18T00:16:39;8.90;;;8.20;;
317;SDS011;146;53.448;10.228;2022-08-18T00:19:06;8.77;;;7.97;;
317;SDS011;146;53.448;10.228;2022-08-18T00:21:33;9.20;;;8.47;;
317;SDS011;146;53.448;10.228;2022-08-18T00:23:59;9.00;;;8.30;;
317;SDS011;146;53.448;10.228;2022-08-18T00:26:27;10.40;;;9.60;;
317;SDS011;146;53.448;10.228;2022-08-18T00:28:55;9.97;;;9.00;;
317;SDS011;146;53.448;10.228;2022-08-18T00:31:22;10.20;;;9.30;;
317;SDS011;146;53.448;10.228;2022-08-18T00:33:48;10.33;;;9.33;;
317;SDS011;146;53.448;10.228;2022-08-18T00:36:15;10.60;;;9.80;;
317;SDS011;146;53.448;10.228;2022-08-18T00:38:42;10.77;;;9.77;;
317;SDS011;146;53.448;10.228;2022-08-18T00:41:09;9.53;;;8.73;;
317;SDS011;146;53.448;10.228;2022-08-18T00:43:36;10.47;;;9.47;;
317;SDS011;146;53.448;10.228;2022-08-18T00:46:08;11.27;;;10.27;;
317;SDS011;146;53.448;10.228;2022-08-18T00:48:39;12.93;;;11.73;;
317;SDS011;146;53.448;10.228;2022-08-18T00:51:07;12.47;;;11.47;;
317;SDS011;146;53.448;10.228;2022-08-18T00:53:39;12.60;;;11.50;;
317;SDS011;146;53.448;10.228;2022-08-18T00:56:10;12.03;;;11.03;;
317;SDS011;146;53.448;10.228;2022-08-18T00:58:47;12.13;;;11.13;;
317;SDS011;146;53.448;10.228;2022-08-18T01:01:21;14.30;;;13.00;;
317;SDS011;146;53.448;10.228;2022-08-18T01:03:51;12.60;;;11.60;;
317;SDS011;146;53.448;10.228;2022-08-18T01:06:25;13.40;;;12.10;;
317;SDS011;146;53.448;10.228;2022-08-18T01:08:56;14.10;;;12.80;;
317;SDS011;146;53.448;10.228;2022-08-18T01:11:23;13.83;;;12.67;;
317;SDS011;146;53.448;10.228;2022-08-18T01:13:50;13.00;;;11.97;;
317;SDS011;146;53.448;10.228;2022-08-18T01:16:18;15.37;;;13.97;;
317;SDS011;146;53.448;10.228;2022-08-18T01:19:04;15.67;;;14.37;;
317;SDS011;146;53.448;10.228;2022-08-18T01:21:51;15.33;;;13.93;;
317;SDS011;146;53.448;10.228;2022-08-18T01:24:26;15.30;;;13.90;;
317;SDS011;146;53.448;10.228;2022-08-18T01:27:14;14.47;;;13.37;;
317;SDS011;146;53.448;10.228;2022-08-18T01:29:43;14.30;;;13.10;;
317;SDS011;146;53.448;10.228;2022-08-18T01:32:10;15.57;;;14.33;;
317;SDS011;146;53.448;10.228;2022-08-18T01:34:39;16.17;;;14.73;;
317;SDS011;146;53.448;10.228;2022-08-18T01:37:06;15.33;;;14.13;;
317;SDS011;146;53.448;10.228;2022-08-18T01:39:35;15.13;;;13.83;;
317;SDS011;146;53.448;10.228;2022-08-18T01:42:02;14.23;;;12.90;;
317;SDS011;146;53.448;10.228;2022-08-18T01:44:29;14.70;;;13.40;;
317;SDS011;146;53.448;10.228;2022-08-18T01:46:57;14.67;;;13.37;;
317;SDS011;146;53.448;10.228;2022-08-18T01:49:24;15.50;;;14.20;;
317;SDS011;146;53.448;10.228;2022-08-18T01:51:52;16.63;;;15.23;;
317;SDS011;146;53.448;10.228;2022-08-18T01:54:20;14.70;;;13.40;;
317;SDS011;146;53.448;10.228;2022-08-18T01:56:48;17.67;;;15.40;;
317;SDS011;146;53.448;10.228;2022-08-18T01:59:16;14.10;;;12.90;;
317;SDS011;146;53.448;10.228;2022-08-18T02:01:44;14.73;;;13.47;;
317;SDS011;146;53.448;10.228;2022-08-18T02:04:12;14.23;;;13.03;;
317;SDS011;146;53.448;10.228;2022-08-18T02:06:41;13.80;;;12.77;;
317;SDS011;146;53.448;10.228;2022-08-18T02:09:08;15.90;;;14.50;;
317;SDS011;146;53.448;10.228;2022-08-18T02:11:35;14.93;;;13.53;;
317;SDS011;146;53.448;10.228;2022-08-18T02:14:03;15.03;;;13.63;;
317;SDS011;146;53.448;10.228;2022-08-18T02:16:30;14.13;;;13.03;;
317;SDS011;146;53.448;10.228;2022-08-18T02:18:58;15.13;;;13.63;;
317;SDS011;146;53.448;10.228;2022-08-18T02:21:25;15.50;;;14.20;;
317;SDS011;146;53.448;10.228;2022-08-18T02:23:51;13.50;;;12.30;;
317;SDS011;146;53.448;10.228;2022-08-18T02:26:18;15.33;;;13.73;;
317;SDS011;146;53.448;10.228;2022-08-18T02:28:45;14.17;;;13.07;;
317;SDS011;146;53.448;10.228;2022-08-18T02:31:15;13.77;;;12.67;;
317;SDS011;146;53.448;10.228;2022-08-18T02:33:43;13.87;;;12.67;;
317;SDS011;146;53.448;10.228;2022-08-18T02:36:10;14.20;;;13.00;;
317;SDS011;146;53.448;10.228;2022-08-18T02:38:38;13.23;;;12.10;;
317;SDS011;146;53.448;10.228;2022-08-18T02:41:06;13.50;;;12.30;;
317;SDS011;146;53.448;10.228;2022-08-18T02:43:35;13.37;;;12.33;;
317;SDS011;146;53.448;10.228;2022-08-18T02:46:02;13.97;;;12.87;;
317;SDS011;146;53.448;10.228;2022-08-18T02:48:32;13.20;;;12.00;;
317;SDS011;146;53.448;10.228;2022-08-18T02:51:00;13.50;;;12.50;;
317;SDS011;146;53.448;10.228;2022-08-18T02:53:27;13.80;;;12.70;;
317;SDS011;146;53.448;10.228;2022-08-18T02:55:54;14.07;;;12.87;;
317;SDS011;146;53.448;10.228;2022-08-18T02:58:29;13.70;;;12.60;;
317;SDS011;146;53.448;10.228;2022-08-18T03:00:55;13.63;;;12.43;;
317;SDS011;146;53.448;10.228;2022-08-18T03:03:22;15.00;;;13.53;;
317;SDS011;146;53.448;10.228;2022-08-18T03:05:50;14.33;;;13.10;;
317;SDS011;146;53.448;10.228;2022-08-18T03:08:17;14.67;;;13.47;;
317;SDS011;146;53.448;10.228;2022-08-18T03:10:44;15.73;;;14.43;;
317;SDS011;146;53.448;10.228;2022-08-18T03:13:11;15.50;;;14.20;;
317;SDS011;146;53.448;10.228;2022-08-18T03:15:37;13.27;;;12.13;;
317;SDS011;146;53.448;10.228;2022-08-18T03:18:04;14.17;;;12.90;;
317;SDS011;146;53.448;10.228;2022-08-18T03:20:31;14.57;;;13.37;;
317;SDS011;146;53.448;10.228;2022-08-18T03:22:59;15.73;;;14.43;;
317;SDS011;146;53.448;10.228;2022-08-18T03:25:28;14.40;;;13.20;;
317;SDS011;146;53.448;10.228;2022-08-18T03:27:55;15.10;;;13.80;;
317;SDS011;146;53.448;10.228;2022-08-18T03:30:22;14.23;;;12.93;;
317;SDS011;146;53.448;10.228;2022-08-18T03:32:49;14.90;;;13.60;;
317;SDS011;146;53.448;10.228;2022-08-18T03:35:16;13.13;;;12.03;;
317;SDS011;146;53.448;10.228;2022-08-18T03:37:43;13.57;;;12.47;;
317;SDS011;146;53.448;10.228;2022-08-18T03:40:11;14.70;;;13.10;;
317;SDS011;146;53.448;10.228;2022-08-18T03:42:38;15.57;;;14.27;;
317;SDS011;146;53.448;10.228;2022-08-18T03:45:05;15.10;;;13.80;;
317;SDS011;146;53.448;10.228;2022-08-18T03:47:32;14.33;;;13.10;;
317;SDS011;146;53.448;10.228;2022-08-18T03:49:59;14.33;;;13.23;;
317;SDS011;146;53.448;10.228;2022-08-18T03:52:26;14.17;;;12.93;;
317;SDS011;146;53.448;10.228;2022-08-18T03:54:53;15.70;;;14.30;;
317;SDS011;146;53.448;10.228;2022-08-18T03:57:21;15.67;;;14.27;;
317;SDS011;146;53.448;10.228;2022-08-18T03:59:48;17.27;;;15.50;;
317;SDS011;146;53.448;10.228;2022-08-18T04:02:15;16.00;;;14.80;;
317;SDS011;146;53.448;10.228;2022-08-18T04:04:42;15.57;;;14.30;;
317;SDS011;146;53.448;10.228;2022-08-18T04:07:10;16.80;;;15.40;;
317;SDS011;146;53.448;10.228;2022-08-18T04:09:44;19.43;;;17.57;;
317;SDS011;146;53.448;10.228;2022-08-18T04:12:13;16.23;;;14.83;;
317;SDS011;146;53.448;10.228;2022-08-18T04:14:43;15.37;;;14.00;;
317;SDS011;146;53.448;10.228;2022-08-18T04:17:11;16.27;;;14.97;;
317;SDS011;146;53.448;10.228;2022-08-18T04:19:38;17.97;;;16.40;;
317;SDS011;146;53.448;10.228;2022-08-18T04:22:06;15.87;;;14.50;;
317;SDS011;146;53.448;10.228;2022-08-18T04:24:33;16.00;;;14.50;;
317;SDS011;146;53.448;10.228;2022-08-18T04:27:01;15.83;;;14.37;;
317;SDS011;146;53.448;10.228;2022-08-18T04:29:29;15.20;;;13.80;;
317;SDS011;146;53.448;10.228;2022-08-18T04:31:58;15.70;;;14.30;;
317;SDS011;146;53.448;10.228;2022-08-18T04:34:26;15.80;;;14.50;;
317;SDS011;146;53.448;10.228;2022-08-18T04:36:53;15.70;;;14.40;;
317;SDS011;146;53.448;10.228;2022-08-18T04:39:20;15.00;;;13.77;;
317;SDS011;146;53.448;10.228;2022-08-18T04:41:47;14.40;;;13.10;;
317;SDS011;146;53.448;10.228;2022-08-18T04:44:15;15.60;;;14.20;;
317;SDS011;146;53.448;10.228;2022-08-18T04:46:42;15.30;;;14.00;;
317;SDS011;146;53.448;10.228;2022-08-18T04:49:13;14.83;;;13.27;;
317;SDS011;146;53.448;10.228;2022-08-18T04:51:42;14.70;;;13.47;;
317;SDS011;146;53.448;10.228;2022-08-18T04:54:30;13.97;;;12.77;;
317;SDS011;146;53.448;10.228;2022-08-18T04:56:56;14.30;;;13.00;;
317;SDS011;146;53.448;10.228;2022-08-18T04:59:23;15.33;;;14.03;;
317;SDS011;146;53.448;10.228;2022-08-18T05:01:49;16.57;;;14.87;;
317;SDS011;146;53.448;10.228;2022-08-18T05:04:18;15.13;;;13.90;;
317;SDS011;146;53.448;10.228;2022-08-18T05:06:45;16.50;;;14.97;;
317;SDS011;146;53.448;10.228;2022-08-18T05:09:12;15.93;;;14.60;;
317;SDS011;146;53.448;10.228;2022-08-18T05:11:40;16.27;;;14.83;;
317;SDS011;146;53.448;10.228;2022-08-18T05:14:08;15.03;;;13.73;;
317;SDS011;146;53.448;10.228;2022-08-18T05:16:36;15.33;;;13.93;;
317;SDS011;146;53.448;10.228;2022-08-18T05:19:04;15.40;;;14.10;;
317;SDS011;146;53.448;10.228;2022-08-18T05:21:33;15.47;;;13.87;;
317;SDS011;146;53.448;10.228;2022-08-18T05:24:02;17.07;;;15.53;;
317;SDS011;146;53.448;10.228;2022-08-18T05:26:30;15.23;;;14.00;;
317;SDS011;146;53.448;10.228;2022-08-18T05:28:57;16.87;;;15.20;;
317;SDS011;146;53.448;10.228;2022-08-18T05:31:25;16.53;;;15.03;;
317;SDS011;146;53.448;10.228;2022-08-18T05:33:53;15.73;;;14.33;;
317;SDS011;146;53.448;10.228;2022-08-18T05:36:26;16.40;;;14.90;;
317;SDS011;146;53.448;10.228;2022-08-18T05:39:20;18.50;;;16.70;;
317;SDS011;146;53.448;10.228;2022-08-18T05:41:51;18.27;;;16.60;;
317;SDS011;146;53.448;10.228;2022-08-18T05:44:21;18.77;;;16.90;;
317;SDS011;146;53.448;10.228;2022-08-18T05:46:52;17.33;;;15.73;;
317;SDS011;146;53.448;10.228;2022-08-18T05:49:21;17.73;;;15.93;;
317;SDS011;146;53.448;10.228;2022-08-18T05:51:53;17.77;;;16.30;;
317;SDS011;146;53.448;10.228;2022-08-18T05:54:23;14.83;;;13.63;;
317;SDS011;146;53.448;10.228;2022-08-18T05:57:11;17.20;;;15.60;;
317;SDS011;146;53.448;10.228;2022-08-18T05:59:43;14.80;;;13.40;;
317;SDS011;146;53.448;10.228;2022-08-18T06:02:14;16.63;;;15.30;;
317;SDS011;146;53.448;10.228;2022-08-18T06:04:46;16.00;;;14.60;;
317;SDS011;146;53.448;10.228;2022-08-18T06:07:18;15.83;;;14.53;;
317;SDS011;146;53.448;10.228;2022-08-18T06:09:52;15.93;;;14.53;;
317;SDS011;146;53.448;10.228;2022-08-18T06:12:23;18.03;;;16.40;;
317;SDS011;146;53.448;10.228;2022-08-18T06:14:53;17.80;;;16.10;;
317;SDS011;146;53.448;10.228;2022-08-18T06:20:23;16.87;;;15.27;;
317;SDS011;146;53.448;10.228;2022-08-18T06:22:57;15.20;;;13.90;;
317;SDS011;146;53.448;10.228;2022-08-18T06:25:32;15.60;;;14.30;;
317;SDS011;146;53.448;10.228;2022-08-18T06:28:04;16.37;;;14.90;;
317;SDS011;146;53.448;10.228;2022-08-18T06:30:42;15.13;;;13.83;;
317;SDS011;146;53.448;10.228;2022-08-18T06:33:15;18.13;;;16.60;;
317;SDS011;146;53.448;10.228;2022-08-18T06:35:58;16.50;;;15.10;;
317;SDS011;146;53.448;10.228;2022-08-18T06:38:38;16.70;;;15.20;;
317;SDS011;146;53.448;10.228;2022-08-18T06:41:13;15.70;;;14.37;;
317;SDS011;146;53.448;10.228;2022-08-18T06:43:46;15.10;;;13.80;;
317;SDS011;146;53.448;10.228;2022-08-18T06:46:25;16.57;;;15.07;;
317;SDS011;146;53.448;10.228;2022-08-18T06:48:58;16.23;;;14.70;;
317;SDS011;146;53.448;10.228;2022-08-18T06:51:30;19.60;;;17.70;;
317;SDS011;146;53.448;10.228;2022-08-18T06:53:59;19.63;;;17.30;;
317;SDS011;146;53.448;10.228;2022-08-18T06:56:32;21.90;;;20.00;;
317;SDS011;146;53.448;10.228;2022-08-18T06:59:18;20.97;;;19.00;;
317;SDS011;146;53.448;10.228;2022-08-18T07:01:57;21.07;;;18.87;;
317;SDS011;146;53.448;10.228;2022-08-18T07:07:32;31.60;;;22.70;;
317;SDS011;146;53.448;10.228;2022-08-18T07:10:03;26.37;;;23.60;;
317;SDS011;146;53.448;10.228;2022-08-18T07:12:32;28.20;;;25.30;;
317;SDS011;146;53.448;10.228;2022-08-18T07:15:00;31.07;;;25.33;;
317;SDS011;146;53.448;10.228;2022-08-18T07:17:30;28.90;;;25.30;;
317;SDS011;146;53.448;10.228;2022-08-18T07:20:00;31.17;;;24.70;;
317;SDS011;146;53.448;10.228;2022-08-18T07:22:31;31.90;;;25.83;;
317;SDS011;146;53.448;10.228;2022-08-18T07:25:11;32.67;;;24.17;;
317;SDS011;146;53.448;10.228;2022-08-18T07:27:48;29.87;;;24.50;;
317;SDS011;146;53.448;10.228;2022-08-18T07:30:25;33.83;;;26.60;;
317;SDS011;146;53.448;10.228;2022-08-18T07:32:56;33.13;;;25.50;;
317;SDS011;146;53.448;10.228;2022-08-18T07:35:28;30.77;;;24.70;;
317;SDS011;146;53.448;10.228;2022-08-18T07:38:00;35.23;;;26.47;;
317;SDS011;146;53.448;10.228;2022-08-18T07:40:35;36.47;;;25.80;;
317;SDS011;146;53.448;10.228;2022-08-18T07:43:08;36.00;;;25.60;;
317;SDS011;146;53.448;10.228;2022-08-18T07:45:43;31.00;;;24.90;;
317;SDS011;146;53.448;10.228;2022-08-18T07:48:12;30.87;;;21.70;;
317;SDS011;146;53.448;10.228;2022-08-18T07:50:44;31.00;;;21.77;;
317;SDS011;146;53.448;10.228;2022-08-18T07:53:24;32.53;;;22.00;;
317;SDS011;146;53.448;10.228;2022-08-18T07:56:04;30.27;;;22.13;;
317;SDS011;146;53.448;10.228;2022-08-18T07:58:40;28.13;;;21.27;;
317;SDS011;146;53.448;10.228;2022-08-18T08:01:16;27.80;;;22.00;;
317;SDS011;146;53.448;10.228;2022-08-18T08:03:49;30.97;;;22.27;;
317;SDS011;146;53.448;10.228;2022-08-18T08:06:26;29.57;;;21.63;;
317;SDS011;146;53.448;10.228;2022-08-18T08:08:59;30.67;;;22.97;;
317;SDS011;146;53.448;10.228;2022-08-18T08:11:38;31.90;;;23.33;;
317;SDS011;146;53.448;10.228;2022-08-18T08:14:17;29.47;;;22.17;;
317;SDS011;146;53.448;10.228;2022-08-18T08:16:56;28.10;;;21.70;;
317;SDS011;146;53.448;10.228;2022-08-18T08:19:43;30.30;;;23.67;;
317;SDS011;146;53.448;10.228;2022-08-18T08:22:22;29.23;;;23.20;;
317;SDS011;146;53.448;10.228;2022-08-18T08:24:58;31.53;;;22.37;;
317;SDS011;146;53.448;10.228;2022-08-18T08:27:34;27.13;;;21.77;;
317;SDS011;146;53.448;10.228;2022-08-18T08:30:11;26.10;;;20.63;;
317;SDS011;146;53.448;10.228;2022-08-18T08:32:41;22.77;;;19.47;;
317;SDS011;146;53.448;10.228;2022-08-18T08:35:18;30.03;;;21.97;;
317;SDS011;146;53.448;10.228;2022-08-18T08:37:50;28.40;;;19.40;;
317;SDS011;146;53.448;10.228;2022-08-18T08:40:21;28.03;;;22.20;;
317;SDS011;146;53.448;10.228;2022-08-18T08:42:54;24.60;;;20.57;;
317;SDS011;146;53.448;10.228;2022-08-18T08:45:25;26.20;;;20.63;;
317;SDS011;146;53.448;10.228;2022-08-18T08:47:57;26.30;;;20.40;;
317;SDS011;146;53.448;10.228;2022-08-18T08:50:32;30.33;;;22.53;;
317;SDS011;146;53.448;10.228;2022-08-18T08:53:05;29.87;;;23.93;;
317;SDS011;146;53.448;10.228;2022-08-18T08:55:42;26.47;;;19.57;;
317;SDS011;146;53.448;10.228;2022-08-18T08:58:17;26.77;;;20.67;;
317;SDS011;146;53.448;10.228;2022-08-18T09:00:47;27.97;;;22.07;;
317;SDS011;146;53.448;10.228;2022-08-18T09:03:28;24.30;;;20.03;;
317;SDS011;146;53.448;10.228;2022-08-18T09:06:06;23.60;;;19.20;;
317;SDS011;146;53.448;10.228;2022-08-18T09:08:50;28.47;;;20.20;;
317;SDS011;146;53.448;10.228;2022-08-18T09:14:38;22.77;;;18.60;;
317;SDS011;146;53.448;10.228;2022-08-18T09:17:37;20.23;;;18.13;;
317;SDS011;146;53.448;10.228;2022-08-18T09:20:23;21.67;;;18.60;;
317;SDS011;146;53.448;10.228;2022-08-18T09:23:00;27.10;;;22.47;;
317;SDS011;146;53.448;10.228;2022-08-18T09:25:44;26.53;;;22.43;;
317;SDS011;146;53.448;10.228;2022-08-18T09:28:14;26.70;;;19.30;;
317;SDS011;146;53.448;10.228;2022-08-18T09:30:46;24.83;;;21.23;;
317;SDS011;146;53.448;10.228;2022-08-18T09:33:20;24.27;;;20.93;;
317;SDS011;146;53.448;10.228;2022-08-18T09:38:47;24.37;;;20.13;;
317;SDS011;146;53.448;10.228;2022-08-18T09:41:50;23.03;;;19.43;;
317;SDS011;146;53.448;10.228;2022-08-18T09:51:13;25.13;;;21.17;;
317;SDS011;146;53.448;10.228;2022-08-18T10:05:54;21.47;;;18.80;;
317;SDS011;146;53.448;10.228;2022-08-18T10:11:30;20.10;;;18.07;;
317;SDS011;146;53.448;10.228;2022-08-18T10:14:22;19.10;;;17.10;;
317;SDS011;146;53.448;10.228;2022-08-18T10:17:00;20.53;;;18.43;;
317;SDS011;146;53.448;10.228;2022-08-18T10:19:40;20.20;;;18.10;;
317;SDS011;146;53.448;10.228;2022-08-18T10:25:07;20.23;;;18.13;;
317;SDS011;146;53.448;10.228;2022-08-18T10:31:19;18.83;;;16.93;;
317;SDS011;146;53.448;10.228;2022-08-18T10:34:01;21.10;;;19.10;;
317;SDS011;146;53.448;10.228;2022-08-18T10:40:12;22.93;;;20.83;;
317;SDS011;146;53.448;10.228;2022-08-18T10:42:43;20.80;;;18.60;;
317;SDS011;146;53.448;10.228;2022-08-18T10:45:18;20.60;;;18.40;;
317;SDS011;146;53.448;10.228;2022-08-18T10:47:58;20.00;;;18.10;;
317;SDS011;146;53.448;10.228;2022-08-18T10:50:27;22.60;;;20.27;;
317;SDS011;146;53.448;10.228;2022-08-18T10:52:57;20.37;;;18.03;;
317;SDS011;146;53.448;10.228;2022-08-18T11:01:19;21.13;;;18.93;;
317;SDS011;146;53.448;10.228;2022-08-18T11:04:03;22.50;;;20.20;;
317;SDS011;146;53.448;10.228;2022-08-18T11:06:37;23.30;;;21.00;;
317;SDS011;146;53.448;10.228;2022-08-18T11:09:06;22.00;;;20.00;;
317;SDS011;146;53.448;10.228;2022-08-18T11:11:35;19.13;;;17.33;;
317;SDS011;146;53.448;10.228;2022-08-18T11:14:14;21.00;;;18.90;;
317;SDS011;146;53.448;10.228;2022-08-18T11:16:53;19.97;;;17.53;;
317;SDS011;146;53.448;10.228;2022-08-18T11:19:29;19.03;;;17.23;;
317;SDS011;146;53.448;10.228;2022-08-18T11:22:02;18.13;;;16.23;;
317;SDS011;146;53.448;10.228;2022-08-18T11:24:30;18.33;;;16.57;;
317;SDS011;146;53.448;10.228;2022-08-18T11:26:59;16.83;;;15.13;;
317;SDS011;146;53.448;10.228;2022-08-18T11:29:28;20.47;;;18.53;;
317;SDS011;146;53.448;10.228;2022-08-18T11:31:58;16.10;;;14.60;;
317;SDS011;146;53.448;10.228;2022-08-18T11:34:34;18.97;;;17.07;;
317;SDS011;146;53.448;10.228;2022-08-18T11:37:06;18.50;;;16.80;;
317;SDS011;146;53.448;10.228;2022-08-18T11:39:41;17.10;;;15.60;;
317;SDS011;146;53.448;10.228;2022-08-18T11:42:13;18.40;;;16.60;;
317;SDS011;146;53.448;10.228;2022-08-18T11:44:42;19.43;;;17.37;;
317;SDS011;146;53.448;10.228;2022-08-18T11:47:12;17.83;;;15.80;;
317;SDS011;146;53.448;10.228;2022-08-18T11:49:51;18.90;;;16.93;;
317;SDS011;146;53.448;10.228;2022-08-18T11:52:23;19.60;;;17.70;;
317;SDS011;146;53.448;10.228;2022-08-18T11:54:51;17.90;;;16.30;;
317;SDS011;146;53.448;10.228;2022-08-18T11:57:30;23.03;;;16.90;;
317;SDS011;146;53.448;10.228;2022-08-18T12:03:07;14.77;;;13.60;;
317;SDS011;146;53.448;10.228;2022-08-18T12:05:41;16.33;;;14.83;;
317;SDS011;146;53.448;10.228;2022-08-18T12:08:20;15.77;;;14.23;;
317;SDS011;146;53.448;10.228;2022-08-18T12:10:48;14.70;;;13.30;;
317;SDS011;146;53.448;10.228;2022-08-18T12:13:28;13.60;;;12.40;;
317;SDS011;146;53.448;10.228;2022-08-18T12:16:10;13.60;;;12.43;;
317;SDS011;146;53.448;10.228;2022-08-18T12:18:39;12.87;;;11.77;;
317;SDS011;146;53.448;10.228;2022-08-18T12:21:08;14.40;;;13.20;;
317;SDS011;146;53.448;10.228;2022-08-18T12:23:36;12.20;;;11.17;;
317;SDS011;146;53.448;10.228;2022-08-18T12:26:05;13.37;;;12.27;;
317;SDS011;146;53.448;10.228;2022-08-18T12:28:32;11.80;;;10.70;;
317;SDS011;146;53.448;10.228;2022-08-18T12:30:59;10.73;;;9.83;;
317;SDS011;146;53.448;10.228;2022-08-18T12:33:26;12.73;;;11.70;;
317;SDS011;146;53.448;10.228;2022-08-18T12:35:53;11.03;;;10.10;;
317;SDS011;146;53.448;10.228;2022-08-18T12:38:21;11.60;;;10.70;;
317;SDS011;146;53.448;10.228;2022-08-18T12:40:48;13.07;;;11.97;;
317;SDS011;146;53.448;10.228;2022-08-18T12:43:14;11.40;;;10.40;;
317;SDS011;146;53.448;10.228;2022-08-18T12:45:41;11.77;;;10.70;;
317;SDS011;146;53.448;10.228;2022-08-18T12:48:08;10.00;;;9.20;;
317;SDS011;146;53.448;10.228;2022-08-18T12:50:36;11.30;;;10.50;;
317;SDS011;146;53.448;10.228;2022-08-18T12:53:03;11.73;;;10.67;;
317;SDS011;146;53.448;10.228;2022-08-18T12:55:33;13.57;;;11.70;;
317;SDS011;146;53.448;10.228;2022-08-18T12:58:01;10.70;;;9.70;;
317;SDS011;146;53.448;10.228;2022-08-18T13:00:29;9.90;;;9.10;;
317;SDS011;146;53.448;10.228;2022-08-18T13:02:56;10.67;;;9.70;;
317;SDS011;146;53.448;10.228;2022-08-18T13:05:23;10.23;;;9.53;;
317;SDS011;146;53.448;10.228;2022-08-18T13:07:50;9.63;;;8.83;;
317;SDS011;146;53.448;10.228;2022-08-18T13:10:16;10.07;;;9.33;;
317;SDS011;146;53.448;10.228;2022-08-18T13:12:45;11.60;;;10.67;;
317;SDS011;146;53.448;10.228;2022-08-18T13:15:11;10.97;;;9.87;;
317;SDS011;146;53.448;10.228;2022-08-18T13:17:38;11.93;;;10.90;;
317;SDS011;146;53.448;10.228;2022-08-18T13:20:06;10.67;;;9.67;;
317;SDS011;146;53.448;10.228;2022-08-18T13:22:35;10.60;;;9.60;;
317;SDS011;146;53.448;10.228;2022-08-18T13:25:05;11.80;;;10.90;;
317;SDS011;146;53.448;10.228;2022-08-18T13:27:34;10.17;;;9.37;;
317;SDS011;146;53.448;10.228;2022-08-18T13:30:03;11.80;;;10.80;;
317;SDS011;146;53.448;10.228;2022-08-18T13:32:33;10.90;;;10.00;;
317;SDS011;146;53.448;10.228;2022-08-18T13:34:59;11.07;;;10.17;;
317;SDS011;146;53.448;10.228;2022-08-18T13:37:26;11.27;;;10.37;;
317;SDS011;146;53.448;10.228;2022-08-18T13:39:56;9.90;;;9.20;;
317;SDS011;146;53.448;10.228;2022-08-18T13:42:23;8.70;;;7.90;;
317;SDS011;146;53.448;10.228;2022-08-18T13:44:50;10.43;;;9.63;;
317;SDS011;146;53.448;10.228;2022-08-18T13:47:18;9.30;;;8.53;;
317;SDS011;146;53.448;10.228;2022-08-18T13:49:44;9.50;;;8.80;;
317;SDS011;146;53.448;10.228;2022-08-18T13:52:11;11.70;;;10.60;;
317;SDS011;146;53.448;10.228;2022-08-18T13:54:39;10.20;;;9.50;;
317;SDS011;146;53.448;10.228;2022-08-18T13:57:09;9.83;;;9.03;;
317;SDS011;146;53.448;10.228;2022-08-18T13:59:36;9.80;;;9.00;;
317;SDS011;146;53.448;10.228;2022-08-18T14:02:04;9.63;;;8.90;;
317;SDS011;146;53.448;10.228;2022-08-18T14:04:35;9.20;;;8.50;;
317;SDS011;146;53.448;10.228;2022-08-18T14:07:03;10.67;;;9.87;;
317;SDS011;146;53.448;10.228;2022-08-18T14:09:31;9.43;;;8.73;;
317;SDS011;146;53.448;10.228;2022-08-18T14:11:58;10.13;;;9.33;;
317;SDS011;146;53.448;10.228;2022-08-18T14:14:25;9.97;;;9.17;;
317;SDS011;146;53.448;10.228;2022-08-18T14:16:51;9.60;;;8.80;;
317;SDS011;146;53.448;10.228;2022-08-18T14:19:18;9.70;;;8.90;;
317;SDS011;146;53.448;10.228;2022-08-18T14:22:04;9.97;;;9.23;;
317;SDS011;146;53.448;10.228;2022-08-18T14:24:48;10.17;;;9.37;;
317;SDS011;146;53.448;10.228;2022-08-18T14:27:33;9.80;;;9.10;;
317;SDS011;146;53.448;10.228;2022-08-18T14:30:03;10.37;;;9.57;;
317;SDS011;146;53.448;10.228;2022-08-18T14:32:32;10.53;;;9.73;;
317;SDS011;146;53.448;10.228;2022-08-18T14:35:00;9.80;;;9.10;;
317;SDS011;146;53.448;10.228;2022-08-18T14:37:31;10.00;;;9.23;;
317;SDS011;146;53.448;10.228;2022-08-18T14:39:58;9.10;;;8.40;;
317;SDS011;146;53.448;10.228;2022-08-18T14:42:25;9.73;;;9.03;;
317;SDS011;146;53.448;10.228;2022-08-18T14:44:52;10.20;;;9.40;;
317;SDS011;146;53.448;10.228;2022-08-18T14:47:19;8.97;;;8.37;;
317;SDS011;146;53.448;10.228;2022-08-18T14:49:46;9.93;;;9.07;;
317;SDS011;146;53.448;10.228;2022-08-18T14:52:13;9.63;;;8.93;;
317;SDS011;146;53.448;10.228;2022-08-18T14:54:41;9.60;;;8.90;;
317;SDS011;146;53.448;10.228;2022-08-18T14:57:08;9.30;;;8.63;;
317;SDS011;146;53.448;10.228;2022-08-18T14:59:36;10.30;;;9.50;;
317;SDS011;146;53.448;10.228;2022-08-18T15:02:04;9.13;;;8.43;;
317;SDS011;146;53.448;10.228;2022-08-18T15:04:32;8.93;;;8.33;;
317;SDS011;146;53.448;10.228;2022-08-18T15:06:58;10.00;;;9.10;;
317;SDS011;146;53.448;10.228;2022-08-18T15:09:25;9.87;;;8.90;;
317;SDS011;146;53.448;10.228;2022-08-18T15:11:55;9.90;;;9.10;;
317;SDS011;146;53.448;10.228;2022-08-18T15:14:23;9.23;;;8.43;;
317;SDS011;146;53.448;10.228;2022-08-18T15:16:50;9.53;;;8.60;;
317;SDS011;146;53.448;10.228;2022-08-18T15:19:17;9.90;;;8.87;;
317;SDS011;146;53.448;10.228;2022-08-18T15:21:45;10.47;;;9.63;;
317;SDS011;146;53.448;10.228;2022-08-18T15:24:29;10.50;;;9.70;;
317;SDS011;146;53.448;10.228;2022-08-18T15:27:15;11.00;;;10.20;;
317;SDS011;146;53.448;10.228;2022-08-18T15:29:41;10.50;;;9.70;;
317;SDS011;146;53.448;10.228;2022-08-18T15:32:08;10.07;;;9.30;;
317;SDS011;146;53.448;10.228;2022-08-18T15:34:39;10.00;;;9.20;;
317;SDS011;146;53.448;10.228;2022-08-18T15:37:07;11.87;;;10.87;;
317;SDS011;146;53.448;10.228;2022-08-18T15:39:34;12.03;;;11.13;;
317;SDS011;146;53.448;10.228;2022-08-18T15:42:01;10.47;;;9.70;;
317;SDS011;146;53.448;10.228;2022-08-18T15:44:36;10.37;;;9.57;;
317;SDS011;146;53.448;10.228;2022-08-18T15:47:03;11.80;;;10.80;;
317;SDS011;146;53.448;10.228;2022-08-18T15:49:31;14.07;;;12.53;;
317;SDS011;146;53.448;10.228;2022-08-18T15:51:58;12.60;;;11.47;;
317;SDS011;146;53.448;10.228;2022-08-18T15:54:25;12.50;;;11.50;;
317;SDS011;146;53.448;10.228;2022-08-18T15:56:52;12.07;;;11.17;;
317;SDS011;146;53.448;10.228;2022-08-18T15:59:19;12.73;;;11.63;;
317;SDS011;146;53.448;10.228;2022-08-18T16:01:47;12.77;;;11.73;;
317;SDS011;146;53.448;10.228;2022-08-18T16:04:14;12.73;;;11.73;;
317;SDS011;146;53.448;10.228;2022-08-18T16:06:41;13.33;;;12.23;;
317;SDS011;146;53.448;10.228;2022-08-18T16:09:11;11.90;;;11.00;;
317;SDS011;146;53.448;10.228;2022-08-18T16:11:39;12.87;;;11.80;;
317;SDS011;146;53.448;10.228;2022-08-18T16:14:06;14.10;;;12.80;;
317;SDS011;146;53.448;10.228;2022-08-18T16:16:33;13.67;;;12.37;;
317;SDS011;146;53.448;10.228;2022-08-18T16:19:01;12.67;;;11.67;;
317;SDS011;146;53.448;10.228;2022-08-18T16:21:28;12.67;;;11.43;;